Create Tblcommutelog Verified Points Advance Search
| # | Trip ID | Id Commuter | Trip Date | Trip Num | Current Lat | Current Lng | Delta Distance | Current Time | Activity | Activity Confidence | Current Speed | |
|---|---|---|---|---|---|---|---|---|---|---|---|---|
| 70041 | 251029_782219_16430700_0700 | 782219 | (not set) | (not set) | 38.9009559 | -77.2156233 | 27.6601 | 2025-10-29 08:14:37 | in_vehicle | 100 | 11.792895652096 | |
| 70042 | 251029_782219_16430700_0700 | 782219 | (not set) | (not set) | 38.8949855 | -77.215591 | 28.0756 | 2025-10-29 08:15:01 | in_vehicle | 100 | 12.602036710864 | |
| 70043 | 251029_782219_16430700_0700 | 782219 | (not set) | (not set) | 38.9035339 | -77.2167199 | 27.4727 | 2025-10-29 08:14:25 | in_vehicle | 100 | 10.277432564128 | |
| 70044 | 251029_782219_16430700_0700 | 782219 | (not set) | (not set) | 38.8842395 | -77.222493 | 28.9156 | 2025-10-29 08:15:51 | in_vehicle | 100 | 11.676665444759 | |
| 70045 | 251029_782219_16430700_0700 | 782219 | (not set) | (not set) | 38.8790129 | -77.2215865 | 29.2799 | 2025-10-29 08:16:17 | in_vehicle | 100 | 10.961402630379 | |
| 70046 | 251029_782219_16430700_0700 | 782219 | (not set) | (not set) | 38.8813762 | -77.2221716 | 29.1138 | 2025-10-29 08:16:05 | in_vehicle | 100 | 9.213479127737 | |
| 70047 | 251029_782219_16430700_0700 | 782219 | (not set) | (not set) | 38.8734593 | -77.2204486 | 29.668 | 2025-10-29 08:16:41 | in_vehicle | 100 | 11.064221659946 | |
| 70048 | 251029_782219_16430700_0700 | 782219 | (not set) | (not set) | 38.8873657 | -77.2213718 | 28.6916 | 2025-10-29 08:15:38 | in_vehicle | 100 | 12.615447888634 | |
| 70049 | 251029_782219_16430700_0700 | 782219 | (not set) | (not set) | 38.8761965 | -77.2209089 | 29.4776 | 2025-10-29 08:16:29 | in_vehicle | 100 | 11.940418607562 | |
| 70050 | 251029_786341_16428277_0855 | 786341 | (not set) | (not set) | 39.2922673 | -76.5628341 | 0.0208 | 2025-10-29 08:56:02 | in_vehicle | 100 | 4.1753466789453 | |
| 70051 | 251029_786341_16428277_0856 | 786341 | (not set) | (not set) | 39.2922673 | -76.5628341 | 0.0208 | 2025-10-29 08:56:02 | in_vehicle | 100 | 4.1753466789453 | |
| 70052 | 251029_786341_16428277_0855 | 786341 | (not set) | (not set) | 39.2922673 | -76.5628341 | 0.0208 | 2025-10-29 08:56:02 | in_vehicle | 100 | 4.1753466789453 | |
| 70053 | 251029_786341_16428277_0856 | 786341 | (not set) | (not set) | 39.2922673 | -76.5628341 | 0.0208 | 2025-10-29 08:56:02 | in_vehicle | 100 | 4.1753466789453 | |
| 70054 | 251029_782219_16430700_0700 | 782219 | (not set) | (not set) | 38.8705385 | -77.2203877 | 29.8696 | 2025-10-29 08:16:54 | in_vehicle | 100 | 12.105823133388 | |
| 70055 | 251029_782219_16430700_0700 | 782219 | (not set) | (not set) | 38.8644336 | -77.2203327 | 30.2907 | 2025-10-29 08:17:18 | in_vehicle | 100 | 12.825556340358 | |
| 70056 | 251029_782219_16430700_0700 | 782219 | (not set) | (not set) | 38.8677723 | -77.220355 | 30.0604 | 2025-10-29 08:17:05 | in_vehicle | 100 | 12.660151814532 | |
| 70057 | 251029_782219_16430700_0700 | 782219 | (not set) | (not set) | 38.8611199 | -77.2202995 | 30.5193 | 2025-10-29 08:17:31 | in_vehicle | 100 | 12.669092599712 | |
| 70058 | 251029_782219_16430700_0700 | 782219 | (not set) | (not set) | 38.8578118 | -77.2203428 | 30.7475 | 2025-10-29 08:17:44 | in_vehicle | 100 | 12.458984147988 | |
| 70059 | 251029_782219_16430700_0700 | 782219 | (not set) | (not set) | 38.8545121 | -77.2203181 | 30.9751 | 2025-10-29 08:17:57 | in_vehicle | 100 | 12.74061888115 | |
| 70060 | 251029_782219_16430700_0700 | 782219 | (not set) | (not set) | 38.838006 | -77.2189242 | 32.1193 | 2025-10-29 08:19:02 | in_vehicle | 100 | 12.655681421942 |